Glendale/Luke AFB, Arizona
Current Conditions -  °F | °C
As of 11:58 PM on Saturday 22 Nov 2014 (Local Time) from KLUF Reporting Station
Clear Clear  
Wind Chill: 50°   Ceiling: Unl
Heat Index: 50°   Visibility: 10mi
Dew Point: 36°   Wind: 2mph
Humidity: 58%   Direction: 330°NNW
Pressure: 29.93"   Gusts: NA
Location:  33.53°N, 112.38°W
Report Text: KLUF 230658Z AUTO 33002KT 10SM CLR 10/02 A2993 RMK AO2 SLP133
Loading
Personal Weather Stations






























Interactive Weather Map New forecast layout! Learn more

10-Day Weather Forecast

Advertisements
Track Severe Weather on mobile